Time;durP1;ratioP1;P1;durP2;ratioP2;P2;SDS_P1;SDS_P2;PMS_P1;PMS_P2;Temp;Humidity;BMP_temperature;BMP_pressure;BME280_temperature;BME280_humidity;BME280_pressure;Samples;Min_cycle;Max_cycle;Signal;HPM_P1;HPM_P2
2023/02/14 00:01:55;;;;;;;934.80;69.72;;;4.70;65.20;;;-0.35;100.00;97288.56;4983916;28;20037;-54
2023/02/14 00:04:27;;;;;;;930.58;66.88;;;4.70;65.20;;;-0.33;100.00;97291.84;4992768;28;20109;-52
2023/02/14 00:06:59;;;;;;;1158.75;77.72;;;4.70;65.30;;;-0.35;100.00;97291.16;4993831;28;20100;-57
2023/02/14 00:09:25;;;;;;;839.13;64.20;;;4.70;65.20;;;-0.38;100.00;97291.47;4978436;28;20018;-53
2023/02/14 00:11:51;;;;;;;795.20;62.33;;;4.70;65.20;;;-0.37;100.00;97291.34;4985427;28;20033;-52
2023/02/14 00:17:05;;;;;;;855.95;61.72;;;4.70;65.20;;;-0.49;100.00;97285.53;4979105;28;20094;-56
2023/02/14 00:19:34;;;;;;;893.45;64.95;;;4.70;65.20;;;-0.50;100.00;97285.69;4992041;28;20563;-56
2023/02/14 00:22:06;;;;;;;691.78;56.88;;;4.70;65.20;;;-0.48;100.00;97289.78;4989079;28;20056;-52
2023/02/14 00:24:32;;;;;;;886.45;64.28;;;4.70;65.30;;;-0.48;100.00;97287.16;4993271;28;20040;-51
2023/02/14 00:26:59;;;;;;;889.38;67.57;;;4.70;65.30;;;-0.44;100.00;97289.47;4992288;28;20037;-51
2023/02/14 00:29:31;;;;;;;780.55;56.45;;;4.70;65.30;;;-0.42;100.00;97284.91;4987567;28;20431;-51
2023/02/14 00:31:58;;;;;;;922.35;65.07;;;4.70;65.50;;;-0.52;100.00;97285.00;4989069;28;20038;-54
2023/02/14 00:34:28;;;;;;;778.33;60.67;;;4.70;65.30;;;-0.53;100.00;97281.59;5000294;28;20029;-55
2023/02/14 00:36:57;;;;;;;844.78;61.90;;;4.70;65.40;;;-0.63;100.00;97280.00;4991265;28;20057;-54
2023/02/14 00:39:26;;;;;;;930.92;66.03;;;4.60;65.30;;;-0.60;100.00;97288.38;4974573;28;20022;-55
2023/02/14 00:41:58;;;;;;;736.85;57.10;;;4.60;65.30;;;-0.52;100.00;97288.44;4992109;28;20021;-53
2023/02/14 00:44:30;;;;;;;662.70;52.75;;;4.60;65.40;;;-0.47;100.00;97295.84;4992489;28;20026;-53
2023/02/14 00:46:55;;;;;;;885.03;68.90;;;4.60;65.50;;;-0.46;100.00;97294.88;4974252;28;20141;-54
2023/02/14 00:49:27;;;;;;;915.10;68.82;;;4.60;65.50;;;-0.47;100.00;97301.06;4993147;28;20096;-52
2023/02/14 00:51:52;;;;;;;965.97;67.75;;;4.70;65.50;;;-0.47;100.00;97295.84;4982632;28;20022;-55
2023/02/14 00:54:21;;;;;;;950.13;69.15;;;4.70;65.50;;;-0.49;100.00;97296.00;4988172;28;20052;-55
2023/02/14 00:56:47;;;;;;;745.35;56.97;;;4.70;65.50;;;-0.45;100.00;97291.28;4989883;28;20029;-51
2023/02/14 00:59:13;;;;;;;692.65;56.30;;;4.70;65.50;;;-0.43;100.00;97291.94;4988741;28;20586;-50
2023/02/14 01:01:40;;;;;;;571.60;48.83;;;4.70;65.50;;;-0.43;100.00;97291.13;4987948;28;20026;-53
2023/02/14 01:04:08;;;;;;;1017.45;76.38;;;4.70;65.50;;;-0.42;100.00;97287.53;4999166;28;20159;-55
2023/02/14 01:06:40;;;;;;;934.17;66.30;;;4.70;65.60;;;-0.37;100.00;97285.28;4991612;28;20088;-56
2023/02/14 01:09:12;;;;;;;655.85;50.38;;;4.80;65.60;;;-0.32;100.00;97290.84;4968357;28;20033;-52
2023/02/14 01:11:39;;;;;;;795.53;61.67;;;4.80;65.60;;;-0.30;100.00;97288.91;4987821;28;20041;-55
2023/02/14 01:14:06;;;;;;;849.95;65.15;;;4.90;65.70;;;-0.28;100.00;97297.47;4983795;28;20030;-51
2023/02/14 01:16:40;;;;;;;706.63;55.58;;;4.80;65.60;;;-0.28;100.00;97300.06;4985289;28;20036;-50
2023/02/14 01:19:14;;;;;;;802.53;58.92;;;4.80;65.60;;;-0.27;100.00;97296.47;4991687;28;20041;-52
2023/02/14 01:21:40;;;;;;;680.60;52.72;;;4.90;65.70;;;-0.26;100.00;97295.47;4980607;28;20026;-53
2023/02/14 01:24:12;;;;;;;818.08;65.13;;;4.90;65.60;;;-0.22;100.00;97288.94;4974026;28;20476;-54
2023/02/14 01:26:44;;;;;;;856.08;59.17;;;4.90;65.70;;;-0.22;100.00;97288.94;4995838;28;20107;-53
2023/02/14 01:29:09;;;;;;;962.90;68.03;;;4.90;65.60;;;-0.24;100.00;97291.75;4991456;28;20021;-51
2023/02/14 01:31:37;;;;;;;710.35;55.80;;;5.00;65.50;;;-0.30;100.00;97287.13;4990873;28;20480;-54
2023/02/14 01:34:09;;;;;;;829.67;62.30;;;4.90;65.40;;;-0.35;100.00;97285.94;4957168;28;20076;-52
2023/02/14 01:36:41;;;;;;;992.37;70.90;;;4.90;66.20;;;-0.43;100.00;97281.47;4981133;28;20076;-53
2023/02/14 01:39:14;;;;;;;776.33;61.67;;;4.80;65.40;;;-0.44;100.00;97282.44;4974678;28;20099;-50
2023/02/14 01:41:47;;;;;;;780.25;57.92;;;4.80;65.40;;;-0.48;100.00;97281.91;4972850;28;20391;-52
2023/02/14 01:44:12;;;;;;;907.55;66.40;;;4.80;65.50;;;-0.48;100.00;97279.31;4959332;28;20084;-54
2023/02/14 01:46:40;;;;;;;860.60;64.30;;;4.70;65.40;;;-0.51;100.00;97279.59;4972088;28;20481;-52
2023/02/14 01:49:32;;;;;;;1065.50;74.22;;;4.70;65.50;;;-0.52;100.00;97272.75;4955397;28;20022;-52
2023/02/14 01:52:14;;;;;;;816.92;58.15;;;4.70;65.50;;;-0.55;100.00;97267.81;4962845;28;20495;-50
2023/02/14 01:54:59;;;;;;;779.17;60.45;;;4.60;65.50;;;-0.55;100.00;97267.81;4967178;28;20038;-53
2023/02/14 01:57:46;;;;;;;945.17;71.75;;;4.60;65.60;;;-0.54;100.00;97266.81;4967849;28;20072;-53
2023/02/14 02:03:03;;;;;;;842.55;58.28;;;4.60;65.60;;;-0.59;100.00;97266.47;4947713;28;20040;-51
2023/02/14 02:05:29;;;;;;;771.25;58.83;;;4.60;65.70;;;-0.59;100.00;97268.28;4982838;28;20018;-51
2023/02/14 02:08:00;;;;;;;871.63;65.25;;;4.60;65.60;;;-0.61;100.00;97260.56;4967974;28;20030;-52
2023/02/14 02:10:29;;;;;;;850.85;61.60;;;4.50;65.70;;;-0.63;100.00;97259.88;4972943;28;20038;-57
2023/02/14 02:13:04;;;;;;;1017.22;72.05;;;4.50;65.70;;;-0.65;100.00;97253.19;4967581;28;20042;-54
2023/02/14 02:16:00;;;;;;;768.92;54.45;;;4.50;65.80;;;-0.66;100.00;97257.59;4981246;28;20032;-53
2023/02/14 02:19:42;;;;;;;761.15;56.80;;;4.50;65.90;;;-0.61;100.00;97254.53;4972044;28;20026;-54
2023/02/14 02:23:00;;;;;;;781.85;57.47;;;4.50;66.00;;;-0.70;100.00;97259.69;4893935;29;20078;-50
2023/02/14 02:26:09;;;;;;;717.10;54.22;;;4.50;66.00;;;-0.73;100.00;97251.31;4952390;28;20026;-55
2023/02/14 02:29:59;;;;;;;703.33;55.20;;;4.40;66.00;;;-0.89;100.00;97261.69;4970321;28;20026;-53
2023/02/14 02:33:45;;;;;;;545.67;45.72;;;4.40;66.00;;;-0.95;100.00;97257.88;4972239;28;20034;-49
2023/02/14 02:36:41;;;;;;;554.05;46.20;;;4.40;65.90;;;-0.90;100.00;97254.81;4937637;28;20026;-51
2023/02/14 02:39:37;;;;;;;630.72;50.90;;;4.30;66.00;;;-0.88;100.00;97251.03;4936680;23;20042;-51
2023/02/14 02:42:51;;;;;;;606.00;47.22;;;4.30;66.10;;;-0.83;100.00;97250.59;4979995;28;20092;-56
2023/02/14 02:53:02;;;;;;;708.25;58.47;;;4.40;66.10;;;-0.83;100.00;97246.19;4926624;28;20044;-51
2023/02/14 02:59:17;;;;;;;785.30;62.75;;;4.30;66.10;;;-0.85;100.00;97234.22;4943621;28;20844;-55
2023/02/14 03:02:15;;;;;;;840.78;65.90;;;4.30;66.10;;;-0.87;100.00;97231.78;4952145;28;20365;-54
2023/02/14 03:04:58;;;;;;;637.40;53.88;;;4.30;66.20;;;-0.86;100.00;97236.03;4926425;28;20445;-51
2023/02/14 03:07:39;;;;;;;723.83;59.38;;;4.30;66.20;;;-0.88;100.00;97232.72;4938505;28;20033;-51
2023/02/14 03:10:28;;;;;;;744.25;58.17;;;4.20;66.10;;;-0.86;100.00;97235.22;4957929;28;20033;-52
2023/02/14 03:14:07;;;;;;;547.72;49.53;;;4.20;67.00;;;-0.82;100.00;97234.72;4943285;28;20047;-50
2023/02/14 03:17:02;;;;;;;850.35;63.90;;;4.30;66.30;;;-0.84;100.00;97234.09;4944458;28;20018;-54
2023/02/14 03:23:22;;;;;;;549.15;45.60;;;4.20;66.40;;;-0.85;100.00;97240.28;4956261;28;20924;-52
2023/02/14 03:26:23;;;;;;;518.40;41.70;;;4.30;66.50;;;-0.77;100.00;97235.09;4952942;28;20076;-54
2023/02/14 03:29:22;;;;;;;750.55;58.25;;;4.30;66.50;;;-0.76;100.00;97241.16;4961606;28;20045;-52
2023/02/14 03:32:14;;;;;;;818.55;59.40;;;4.30;66.50;;;-0.75;100.00;97238.41;4970727;28;20026;-52
2023/02/14 03:35:36;;;;;;;747.20;56.80;;;4.30;66.50;;;-0.72;100.00;97245.13;4955886;28;20770;-51
2023/02/14 03:38:32;;;;;;;727.67;54.15;;;4.40;66.40;;;-0.78;100.00;97240.50;4969479;28;20037;-53
2023/02/14 03:41:11;;;;;;;561.00;47.60;;;4.40;66.40;;;-0.83;100.00;97242.75;4961086;28;20046;-53
2023/02/14 03:44:03;;;;;;;705.92;55.00;;;4.40;66.40;;;-0.75;100.00;97240.22;4970977;28;20665;-52
2023/02/14 03:46:57;;;;;;;880.05;61.72;;;4.40;66.50;;;-0.75;100.00;97235.78;4932821;28;20018;-51
2023/02/14 03:49:33;;;;;;;745.72;55.20;;;4.40;66.40;;;-0.73;100.00;97240.84;4927039;28;20042;-52
2023/02/14 03:52:04;;;;;;;735.13;55.88;;;4.40;66.40;;;-0.70;100.00;97245.78;4953901;28;20046;-52
2023/02/14 03:54:34;;;;;;;740.97;62.60;;;4.40;66.50;;;-0.74;100.00;97244.47;4969439;28;20409;-50
2023/02/14 03:57:26;;;;;;;634.22;52.38;;;4.40;66.40;;;-0.73;100.00;97238.25;4969547;28;20045;-51
2023/02/14 03:59:56;;;;;;;617.13;52.28;;;4.50;66.50;;;-0.72;100.00;97245.13;4937950;28;20153;-54
2023/02/14 04:02:47;;;;;;;613.17;49.05;;;4.40;66.50;;;-0.68;100.00;97246.47;4955556;28;20041;-53
2023/02/14 04:05:26;;;;;;;876.65;65.18;;;4.50;66.60;;;-0.72;100.00;97245.94;4951101;28;20054;-51
2023/02/14 04:07:58;;;;;;;532.58;46.45;;;4.50;66.50;;;-0.71;100.00;97238.91;4960193;28;20061;-52
2023/02/14 04:10:25;;;;;;;748.63;59.30;;;4.50;66.40;;;-0.71;100.00;97241.53;4959957;28;20381;-52
2023/02/14 04:12:52;;;;;;;723.85;51.80;;;4.60;66.30;;;-0.71;100.00;97246.78;4962766;28;20061;-56
2023/02/14 04:15:18;;;;;;;676.53;54.63;;;4.50;66.30;;;-0.72;100.00;97243.34;4966540;28;20112;-54
2023/02/14 04:20:35;;;;;;;634.17;49.60;;;4.50;66.30;;;-0.75;100.00;97248.88;4952828;28;20085;-54
2023/02/14 04:23:07;;;;;;;637.90;52.55;;;4.50;66.30;;;-0.83;100.00;97240.94;4952898;28;20057;-50
2023/02/14 04:25:44;;;;;;;368.57;37.33;;;4.50;66.30;;;-0.78;100.00;97240.50;4948530;28;20031;-55
2023/02/14 04:28:13;;;;;;;699.15;52.67;;;4.50;66.30;;;-0.77;100.00;97242.16;4962555;28;21206;-51
2023/02/14 04:30:39;;;;;;;595.50;50.00;;;4.50;66.30;;;-0.81;100.00;97236.41;4949479;28;20500;-56
2023/02/14 04:33:06;;;;;;;630.55;48.35;;;4.50;66.30;;;-0.83;100.00;97238.34;4962033;28;20057;-56
2023/02/14 04:35:36;;;;;;;547.10;47.80;;;4.50;67.00;;;-0.85;100.00;97234.22;4940764;28;20026;-55
2023/02/14 04:38:26;;;;;;;586.03;50.85;;;4.40;66.10;;;-0.96;100.00;97232.69;4949428;28;20057;-56
2023/02/14 04:40:53;;;;;;;528.17;45.28;;;4.40;66.20;;;-0.95;100.00;97235.13;4924653;29;20038;-51
2023/02/14 04:43:19;;;;;;;546.85;48.67;;;4.40;66.20;;;-0.99;100.00;97239.03;4962532;28;20488;-55
2023/02/14 04:45:51;;;;;;;524.42;50.42;;;4.30;66.20;;;-1.19;100.00;97232.34;4956436;28;20040;-52
2023/02/14 04:48:17;;;;;;;621.95;53.92;;;4.30;66.30;;;-1.18;100.00;97232.19;4958289;28;20045;-53
2023/02/14 04:50:42;;;;;;;503.48;48.35;;;4.20;66.20;;;-1.11;100.00;97234.19;4971916;28;20489;-51
2023/02/14 04:53:14;;;;;;;496.20;47.20;;;4.20;66.30;;;-1.09;100.00;97232.25;4945679;28;20037;-52
2023/02/14 04:55:40;;;;;;;527.70;48.92;;;4.20;66.50;;;-1.07;100.00;97238.13;4964530;28;20041;-50
2023/02/14 04:58:06;;;;;;;402.45;46.17;;;4.10;66.40;;;-1.08;100.00;97236.50;4956726;28;20026;-51
2023/02/14 05:00:32;;;;;;;508.70;47.83;;;4.20;66.50;;;-1.08;100.00;97237.31;4944136;28;20034;-53
2023/02/14 05:02:58;;;;;;;530.17;49.72;;;4.20;66.60;;;-1.06;100.00;97242.41;4969573;28;20026;-50
2023/02/14 05:05:23;;;;;;;531.55;50.00;;;4.10;66.50;;;-1.03;100.00;97239.50;4940059;28;20022;-54
2023/02/14 05:07:49;;;;;;;449.80;45.70;;;4.10;66.60;;;-1.11;100.00;97235.00;4968122;28;20080;-51
2023/02/14 05:10:18;;;;;;;548.20;51.35;;;4.10;66.60;;;-1.07;100.00;97235.53;4946965;28;20030;-52
2023/02/14 05:12:47;;;;;;;337.52;42.90;;;4.10;66.60;;;-1.16;100.00;97237.25;4939085;28;20026;-50
2023/02/14 05:15:13;;;;;;;364.20;41.47;;;4.10;66.60;;;-1.13;100.00;97231.72;4967815;28;20493;-54
2023/02/14 05:17:51;;;;;;;556.50;49.53;;;4.10;66.60;;;-1.08;100.00;97239.94;4960978;28;20141;-53
2023/02/14 05:20:23;;;;;;;425.20;44.72;;;4.10;66.90;;;-1.02;100.00;97239.34;4956638;28;20136;-52
2023/02/14 05:22:49;;;;;;;319.25;42.00;;;4.10;66.80;;;-1.03;100.00;97231.66;4957292;28;20034;-52
2023/02/14 05:25:24;;;;;;;771.47;61.60;;;4.20;66.90;;;-1.02;100.00;97241.94;4959997;28;20030;-52
2023/02/14 05:27:53;;;;;;;549.65;50.03;;;4.10;66.90;;;-1.05;100.00;97250.09;4959604;28;20018;-54
2023/02/14 05:30:24;;;;;;;612.33;52.97;;;4.20;66.90;;;-1.03;100.00;97250.78;4958769;28;20397;-55
2023/02/14 05:32:49;;;;;;;621.50;50.58;;;4.10;66.80;;;-1.20;100.00;97244.56;4970630;28;20022;-52
2023/02/14 05:35:15;;;;;;;604.92;54.67;;;4.20;66.80;;;-1.18;100.00;97240.03;4967461;28;20037;-50
2023/02/14 05:37:41;;;;;;;694.88;59.03;;;4.10;66.70;;;-1.13;100.00;97241.34;4943160;28;20033;-56
2023/02/14 05:40:12;;;;;;;834.67;65.40;;;4.10;66.80;;;-1.12;100.00;97250.88;4963433;28;20413;-52
2023/02/14 05:42:42;;;;;;;518.63;52.90;;;4.10;66.90;;;-1.12;100.00;97256.91;4967167;28;20515;-50
2023/02/14 05:45:12;;;;;;;470.88;47.28;;;4.10;66.90;;;-1.14;100.00;97250.19;4940400;28;20018;-57
2023/02/14 05:47:41;;;;;;;761.80;64.68;;;4.10;66.90;;;-1.06;100.00;97250.28;4941789;28;20049;-51
2023/02/14 05:50:08;;;;;;;488.77;48.50;;;4.10;66.90;;;-1.05;100.00;97252.72;4934693;28;20026;-55
2023/02/14 05:52:34;;;;;;;695.03;55.33;;;4.10;66.90;;;-1.04;100.00;97249.13;4941487;28;20114;-54
2023/02/14 05:55:05;;;;;;;708.00;55.83;;;4.20;67.00;;;-1.08;100.00;97245.16;4965707;28;20030;-55
2023/02/14 05:57:33;;;;;;;575.33;48.80;;;4.20;67.00;;;-1.12;100.00;97253.47;4964126;28;20022;-51
2023/02/14 05:59:59;;;;;;;469.20;44.45;;;4.20;66.90;;;-1.13;100.00;97254.44;4954224;28;20042;-50
2023/02/14 06:02:25;;;;;;;365.08;40.38;;;4.20;66.80;;;-1.20;100.00;97246.38;4944355;28;20030;-50
2023/02/14 06:04:54;;;;;;;331.90;39.28;;;4.20;66.80;;;-1.11;100.00;97249.88;4957074;28;20050;-55
2023/02/14 06:07:26;;;;;;;513.50;47.95;;;4.20;66.80;;;-1.11;100.00;97248.09;4964147;28;20049;-52
2023/02/14 06:09:52;;;;;;;480.38;44.35;;;4.10;66.80;;;-1.11;100.00;97250.69;4950753;28;20022;-55
2023/02/14 06:12:18;;;;;;;531.85;44.67;;;4.20;66.90;;;-1.08;100.00;97249.59;4959212;28;20091;-51
2023/02/14 06:14:44;;;;;;;342.42;40.05;;;4.20;66.90;;;-1.11;100.00;97250.69;4957238;28;20022;-55
2023/02/14 06:17:10;;;;;;;572.60;51.40;;;4.20;66.80;;;-1.10;100.00;97256.75;4950402;28;20042;-50
2023/02/14 06:19:36;;;;;;;546.58;47.60;;;4.20;66.80;;;-1.07;100.00;97251.22;4957454;28;20030;-50
2023/02/14 06:22:03;;;;;;;271.58;36.72;;;4.20;66.80;;;-1.07;100.00;97252.03;4949351;28;20033;-51
2023/02/14 06:24:31;;;;;;;376.30;43.58;;;4.20;66.70;;;-1.06;100.00;97253.69;4938705;28;20018;-51
2023/02/14 06:26:59;;;;;;;420.52;41.75;;;4.30;66.80;;;-1.04;100.00;97259.59;4909868;28;20123;-52
2023/02/14 06:29:28;;;;;;;309.33;40.88;;;4.30;66.80;;;-1.05;100.00;97260.56;4958230;28;20032;-51
2023/02/14 06:32:04;;;;;;;348.35;41.88;;;4.20;66.70;;;-1.08;100.00;97265.28;4963797;28;20030;-50
2023/02/14 06:34:30;;;;;;;420.42;45.60;;;4.30;66.90;;;-1.08;100.00;97270.50;4963975;28;20072;-53
2023/02/14 06:36:56;;;;;;;374.08;44.85;;;4.30;66.70;;;-1.06;100.00;97269.41;4961205;28;20045;-56
2023/02/14 06:39:25;;;;;;;400.90;44.50;;;4.30;66.70;;;-1.03;100.00;97276.94;4968812;28;20050;-51
2023/02/14 06:41:51;;;;;;;286.63;37.83;;;4.30;66.70;;;-1.00;100.00;97275.81;4969960;28;20041;-51
2023/02/14 06:44:17;;;;;;;484.42;44.05;;;4.30;66.70;;;-1.02;100.00;97277.75;4971974;28;20048;-50
2023/02/14 06:46:45;;;;;;;339.90;40.25;;;4.30;66.70;;;-1.02;100.00;97281.19;4957582;28;20480;-54
2023/02/14 06:49:14;;;;;;;408.60;40.75;;;4.30;66.70;;;-1.02;100.00;97286.44;4965729;28;20230;-50
2023/02/14 06:51:57;;;;;;;362.55;38.53;;;4.30;66.80;;;-1.07;100.00;97286.03;4962272;28;20105;-50
2023/02/14 06:54:23;;;;;;;427.45;41.45;;;4.20;66.60;;;-1.08;100.00;97283.59;4966023;28;20389;-50
2023/02/14 06:56:49;;;;;;;437.40;42.10;;;4.20;66.60;;;-1.09;100.00;97287.19;4949645;28;20034;-50
2023/02/14 06:59:18;;;;;;;433.80;41.15;;;4.20;66.70;;;-1.08;100.00;97299.28;4967623;28;20683;-50
2023/02/14 07:01:44;;;;;;;539.70;48.05;;;4.20;66.70;;;-1.13;100.00;97289.25;4953607;28;20038;-51
2023/02/14 07:04:12;;;;;;;448.70;42.53;;;4.20;66.70;;;-1.23;100.00;97286.72;4962361;28;20018;-50
2023/02/14 07:06:38;;;;;;;643.70;53.22;;;4.20;66.60;;;-1.20;100.00;97294.25;4969672;28;20018;-51
2023/02/14 07:09:06;;;;;;;361.92;38.85;;;4.20;66.70;;;-1.24;100.00;97290.31;4946382;28;20033;-55
2023/02/14 07:11:32;;;;;;;360.15;38.42;;;4.20;66.70;;;-1.28;100.00;97290.78;4934394;28;20030;-52
2023/02/14 07:13:58;;;;;;;321.92;38.72;;;4.20;66.60;;;-1.25;100.00;97291.28;4968014;28;20104;-50
2023/02/14 07:16:27;;;;;;;390.42;40.85;;;4.20;66.70;;;-1.33;100.00;97288.59;4979124;28;20041;-51
2023/02/14 07:18:56;;;;;;;283.42;34.00;;;4.20;66.70;;;-1.24;100.00;97294.72;4968513;28;20381;-54
2023/02/14 07:21:22;;;;;;;317.33;37.78;;;4.20;66.70;;;-1.26;100.00;97287.00;4964938;28;20044;-51
2023/02/14 07:23:48;;;;;;;350.80;39.13;;;4.20;66.70;;;-1.24;100.00;97279.03;4957635;28;20477;-51
2023/02/14 07:26:17;;;;;;;247.15;32.95;;;4.20;66.60;;;-1.21;100.00;97279.56;4970218;28;20389;-54
2023/02/14 07:28:56;;;;;;;353.45;34.80;;;4.30;66.80;;;-1.10;100.00;97286.34;4955179;28;20034;-51
2023/02/14 07:31:28;;;;;;;497.42;42.65;;;4.30;66.70;;;-1.07;100.00;97285.22;4974233;28;20030;-50
2023/02/14 07:33:53;;;;;;;392.13;39.17;;;4.40;66.70;;;-1.04;100.00;97282.31;4979131;28;20049;-54
2023/02/14 07:36:31;;;;;;;432.20;43.38;;;4.50;66.70;;;-1.02;100.00;97283.00;4952522;28;20054;-50
2023/02/14 07:39:00;;;;;;;497.88;43.83;;;4.50;66.60;;;-0.98;100.00;97285.16;4968308;28;20035;-50
2023/02/14 07:41:26;;;;;;;362.33;37.78;;;4.50;66.50;;;-1.08;100.00;97283.59;4968619;28;20038;-52
2023/02/14 07:43:58;;;;;;;430.38;41.38;;;4.50;66.40;;;-1.04;100.00;97277.06;4939790;28;20492;-50
2023/02/14 07:46:24;;;;;;;325.40;38.20;;;4.60;66.40;;;-0.99;100.00;97277.47;4974000;28;20111;-54
2023/02/14 07:48:51;;;;;;;259.83;33.90;;;4.60;66.30;;;-1.00;100.00;97281.88;4962671;28;20493;-50
2023/02/14 07:51:17;;;;;;;364.35;39.28;;;4.60;66.30;;;-0.94;100.00;97281.28;4978479;28;20046;-54
2023/02/14 07:53:47;;;;;;;350.13;39.70;;;4.60;66.20;;;-0.93;100.00;97282.09;4969195;28;20026;-54
2023/02/14 07:56:13;;;;;;;280.52;37.03;;;4.70;66.30;;;-0.95;100.00;97279.59;4956802;28;20083;-50
2023/02/14 07:58:48;;;;;;;365.80;41.80;;;4.70;66.20;;;-0.95;100.00;97282.22;4952341;28;20022;-51
2023/02/14 08:01:15;;;;;;;457.80;39.17;;;4.80;66.10;;;-0.99;100.00;97273.03;4964517;28;20038;-53
2023/02/14 08:03:51;;;;;;;501.98;42.55;;;4.80;65.90;;;-0.93;100.00;97269.00;4926598;28;20029;-50
2023/02/14 08:06:21;;;;;;;210.40;32.42;;;4.80;65.90;;;-0.87;100.00;97265.78;4973513;28;20042;-51
2023/02/14 08:08:48;;;;;;;254.68;34.58;;;4.90;65.80;;;-0.79;100.00;97272.88;4982396;28;20029;-55
2023/02/14 08:14:20;;;;;;;409.75;38.90;;;4.90;65.90;;;-0.65;100.00;97271.50;4973363;28;20521;-50
2023/02/14 08:16:53;;;;;;;267.55;34.10;;;5.00;66.00;;;-0.62;100.00;97272.03;4971875;28;20041;-51
2023/02/14 08:19:19;;;;;;;320.33;34.63;;;5.10;65.90;;;-0.64;100.00;97262.69;4956062;28;20069;-50
2023/02/14 08:21:54;;;;;;;309.27;32.67;;;5.20;65.90;;;-0.75;100.00;97259.34;4967737;28;20065;-51
2023/02/14 08:24:20;;;;;;;316.42;31.50;;;5.20;65.80;;;-0.72;100.00;97263.47;4973023;28;20045;-51
2023/02/14 08:26:52;;;;;;;275.13;34.30;;;5.20;65.50;;;-0.81;100.00;97265.19;4958800;28;20535;-52
2023/02/14 08:29:24;;;;;;;156.13;27.17;;;5.30;65.50;;;-0.70;100.00;97262.31;4962380;28;20515;-51
2023/02/14 08:31:53;;;;;;;138.73;28.27;;;5.30;65.40;;;-0.57;100.00;97271.56;4972050;28;20328;-53
2023/02/14 08:34:22;;;;;;;137.43;29.00;;;5.30;65.40;;;-0.49;100.00;97271.63;4981722;28;20030;-51
2023/02/14 08:36:54;;;;;;;109.47;26.50;;;5.40;65.40;;;-0.43;100.00;97259.72;4972648;28;20084;-54
2023/02/14 08:39:20;;;;;;;132.45;25.80;;;5.50;65.50;;;-0.40;100.00;97252.38;4954809;28;20130;-57
2023/02/14 08:41:54;;;;;;;208.43;29.42;;;5.60;65.40;;;-0.33;100.00;97257.81;4987899;23;20054;-54
2023/02/14 08:44:23;;;;;;;171.65;25.13;;;5.70;65.40;;;-0.28;100.00;97255.56;4984304;28;20030;-53
2023/02/14 08:47:02;;;;;;;164.88;26.95;;;5.70;65.20;;;-0.21;100.00;97255.75;4983155;28;20029;-54
2023/02/14 08:49:28;;;;;;;142.15;24.55;;;5.90;65.10;;;-0.18;100.00;97258.06;4972680;28;20033;-53
2023/02/14 08:51:58;;;;;;;144.93;24.73;;;5.90;64.90;;;-0.10;100.00;97252.84;4980948;28;20364;-51
2023/02/14 08:54:25;;;;;;;263.88;28.15;;;6.00;64.70;;;-0.08;100.00;97258.75;4992229;28;20022;-55
2023/02/14 08:56:55;;;;;;;258.77;29.95;;;6.10;64.50;;;-0.01;100.00;97255.34;4981347;28;20030;-54
2023/02/14 08:59:21;;;;;;;244.00;30.23;;;6.20;64.40;;;0.04;100.00;97256.69;4971388;28;20044;-55
2023/02/14 09:01:47;;;;;;;133.50;25.02;;;6.30;64.40;;;0.08;100.00;97255.38;4979273;28;20038;-55
2023/02/14 09:04:13;;;;;;;192.10;28.75;;;6.40;64.20;;;0.11;100.00;97255.06;4967115;28;20030;-58
2023/02/14 09:06:48;;;;;;;174.38;27.27;;;6.50;64.10;;;0.15;100.00;97256.38;4981468;28;20487;-57
2023/02/14 09:09:18;;;;;;;94.55;22.90;;;6.60;64.00;;;0.28;100.00;97262.00;4970863;28;20443;-57
2023/02/14 09:11:47;;;;;;;97.32;23.08;;;6.70;63.90;;;0.43;100.00;97254.34;4968596;28;20121;-58
2023/02/14 09:14:25;;;;;;;75.95;22.13;;;6.70;63.90;;;0.49;100.00;97258.94;4986461;28;20022;-56
2023/02/14 09:16:51;;;;;;;76.55;22.42;;;6.90;63.80;;;0.62;100.00;97256.69;4977986;28;20037;-56
2023/02/14 09:19:16;;;;;;;74.32;21.45;;;7.00;63.80;;;0.69;100.00;97244.59;4979405;28;20473;-55
2023/02/14 09:21:45;;;;;;;91.53;22.27;;;7.20;63.70;;;0.76;100.00;97239.50;4982156;28;20083;-56
2023/02/14 09:24:20;;;;;;;68.85;20.98;;;7.30;63.60;;;0.82;100.00;97236.22;4953238;28;20082;-54
2023/02/14 09:27:01;;;;;;;71.07;21.48;;;7.40;63.40;;;0.98;100.00;97243.28;4962212;28;20370;-58
2023/02/14 09:29:31;;;;;;;75.25;21.08;;;7.50;63.40;;;1.06;100.00;97235.41;4987447;28;20125;-55
2023/02/14 09:32:01;;;;;;;63.70;20.77;;;7.70;63.40;;;1.05;100.00;97231.16;4970522;28;20026;-57
2023/02/14 09:34:28;;;;;;;66.40;19.95;;;7.70;63.20;;;1.07;100.00;97231.00;4962551;28;20045;-58
2023/02/14 09:37:04;;;;;;;102.35;21.60;;;7.70;63.00;;;0.90;100.00;97238.03;4973859;28;20480;-54
2023/02/14 09:39:32;;;;;;;112.60;21.95;;;7.80;62.80;;;0.91;100.00;97237.88;4973349;28;20392;-57
2023/02/14 09:42:50;;;;;;;68.10;20.45;;;7.80;62.50;;;1.13;100.00;97240.84;4986476;28;20214;-54
2023/02/14 09:45:24;;;;;;;88.70;20.35;;;7.90;62.40;;;1.31;100.00;97235.38;4971396;28;20077;-56
2023/02/14 09:48:16;;;;;;;60.30;19.40;;;8.10;62.50;;;1.39;100.00;97238.03;4964709;28;20033;-58
2023/02/14 09:50:53;;;;;;;46.35;17.60;;;8.20;62.50;;;1.48;99.69;97231.78;4976749;28;20022;-55
2023/02/14 09:53:34;;;;;;;49.10;19.13;;;8.40;62.40;;;1.54;98.96;97230.28;4973300;28;20030;-56
2023/02/14 09:56:34;;;;;;;36.60;16.38;;;8.50;62.00;;;1.75;98.44;97229.72;4986242;28;20034;-55
2023/02/14 09:59:18;;;;;;;35.08;16.08;;;8.60;61.90;;;1.83;97.99;97230.53;4955413;28;20481;-58
2023/02/14 10:03:09;;;;;;;39.40;17.15;;;8.80;61.70;;;2.02;97.95;97231.13;4988603;28;20049;-59
2023/02/14 10:06:19;;;;;;;34.15;15.88;;;8.90;61.50;;;2.06;95.69;97233.22;4948458;28;20540;-58
2023/02/14 10:09:57;;;;;;;30.95;15.82;;;9.00;61.40;;;2.02;96.29;97216.16;4954060;28;20026;-52
2023/02/14 10:13:20;;;;;;;27.80;15.65;;;9.00;61.00;;;2.28;96.32;97212.44;4982938;28;20118;-58
2023/02/14 10:16:33;;;;;;;25.20;14.68;;;9.10;61.30;;;2.45;93.76;97213.19;4971939;28;20810;-58
2023/02/14 10:19:33;;;;;;;26.10;13.38;;;9.20;61.30;;;2.54;92.53;97212.13;4957154;28;20100;-57
2023/02/14 10:22:13;;;;;;;22.40;13.55;;;9.30;61.20;;;2.63;91.90;97218.97;4981850;28;20053;-56
2023/02/14 10:24:56;;;;;;;22.17;13.65;;;9.40;60.90;;;2.67;91.91;97207.09;4973002;28;20048;-58
2023/02/14 10:27:46;;;;;;;21.67;13.35;;;9.50;60.40;;;2.62;91.31;97206.00;4972660;28;20037;-55
2023/02/14 10:30:23;;;;;;;23.05;13.45;;;9.60;60.10;;;2.68;91.50;97205.28;4982318;28;20034;-57
2023/02/14 10:33:35;;;;;;;22.70;13.98;;;9.70;59.80;;;2.83;90.28;97202.72;4983572;28;20030;-57
2023/02/14 10:36:34;;;;;;;23.05;13.52;;;10.00;59.60;;;3.24;88.42;97203.19;4923047;29;20038;-59
2023/02/14 10:39:33;;;;;;;20.45;13.27;;;10.50;59.30;;;3.63;87.32;97207.44;4929881;29;20035;-59
2023/02/14 10:42:37;;;;;;;19.23;12.40;;;11.00;58.80;;;3.50;87.42;97200.16;4920282;29;20043;-58
2023/02/14 10:45:23;;;;;;;20.75;12.95;;;11.10;58.40;;;3.50;87.82;97196.69;4933813;28;20564;-58
2023/02/14 10:48:32;;;;;;;20.05;12.35;;;11.20;58.30;;;3.62;85.34;97188.16;4933892;28;20424;-54
2023/02/14 10:51:43;;;;;;;20.75;13.00;;;11.20;57.80;;;3.82;84.68;97193.69;4941422;28;20125;-57
2023/02/14 10:54:41;;;;;;;19.40;12.73;;;11.30;57.70;;;4.18;82.96;97190.31;4935409;28;20038;-57
2023/02/14 10:57:53;;;;;;;19.55;13.10;;;11.60;57.40;;;4.45;81.75;97177.41;4929611;29;20130;-58
2023/02/14 11:00:38;;;;;;;21.40;13.27;;;11.90;57.00;;;4.63;79.73;97170.69;4921263;29;20035;-55
2023/02/14 11:03:11;;;;;;;18.05;12.95;;;12.20;56.80;;;4.58;79.08;97172.28;4913657;29;20031;-55
2023/02/14 11:05:47;;;;;;;17.77;12.98;;;12.40;56.30;;;4.59;79.74;97171.28;4932121;28;20501;-57
2023/02/14 11:08:39;;;;;;;19.20;12.85;;;12.60;55.90;;;4.70;79.43;97160.22;4972443;28;20124;-55